createdAt,value
2022-12-28T00:00:51.039Z,8.11
2022-12-28T00:02:22.824Z,8.09
2022-12-28T00:03:54.469Z,8.13
2022-12-28T00:05:26.113Z,8.13
2022-12-28T00:06:57.690Z,8.15
2022-12-28T00:08:29.177Z,8.16
2022-12-28T00:10:00.710Z,8.14
2022-12-28T00:11:32.263Z,8.16
2022-12-28T00:13:03.804Z,8.19
2022-12-28T00:14:35.392Z,8.18
2022-12-28T00:16:27.542Z,8.16
2022-12-28T00:17:59.241Z,8.17
2022-12-28T00:19:30.815Z,8.15
2022-12-28T00:21:02.569Z,8.12
2022-12-28T00:22:34.218Z,8.08
2022-12-28T00:24:05.845Z,8.07
2022-12-28T00:25:37.424Z,8.04
2022-12-28T00:27:09.018Z,8.01
2022-12-28T00:28:41.020Z,8.00
2022-12-28T00:30:12.901Z,7.99
2022-12-28T00:31:46.260Z,8.00
2022-12-28T00:33:17.879Z,8.08
2022-12-28T00:34:49.545Z,8.10
2022-12-28T00:36:21.057Z,8.14
2022-12-28T00:37:52.987Z,8.18
2022-12-28T00:39:24.614Z,8.16
2022-12-28T00:40:56.239Z,8.17
2022-12-28T00:42:27.778Z,8.16
2022-12-28T00:43:59.387Z,8.18
2022-12-28T00:45:31.030Z,8.17
2022-12-28T00:47:02.688Z,8.11
2022-12-28T00:48:34.502Z,8.06
2022-12-28T00:50:06.291Z,8.02
2022-12-28T00:51:37.830Z,7.98
2022-12-28T00:53:09.665Z,7.97
2022-12-28T00:54:41.259Z,7.98
2022-12-28T00:56:13.819Z,7.98
2022-12-28T00:57:45.439Z,7.93
2022-12-28T00:59:17.631Z,7.89
2022-12-28T01:00:49.473Z,7.89
2022-12-28T01:02:21.145Z,7.89
2022-12-28T01:03:54.785Z,7.90
2022-12-28T01:05:26.502Z,7.93
2022-12-28T01:06:58.201Z,7.95
2022-12-28T01:08:29.898Z,7.96
2022-12-28T01:10:01.522Z,7.94
2022-12-28T01:11:33.057Z,7.91
2022-12-28T01:13:04.663Z,7.92
2022-12-28T01:14:36.493Z,7.91
2022-12-28T01:16:14.591Z,7.94
2022-12-28T01:17:46.160Z,7.95
2022-12-28T01:19:20.844Z,7.91
2022-12-28T01:20:52.503Z,7.88
2022-12-28T01:22:24.135Z,7.87
2022-12-28T01:23:56.681Z,7.87
2022-12-28T01:25:28.321Z,7.87
2022-12-28T01:26:59.844Z,7.88
2022-12-28T01:28:31.506Z,7.88
2022-12-28T01:30:03.118Z,7.94
2022-12-28T01:31:34.797Z,7.97
2022-12-28T01:33:06.376Z,7.95
2022-12-28T01:34:38.030Z,7.95
2022-12-28T01:36:10.225Z,7.95
2022-12-28T01:37:41.931Z,7.99
2022-12-28T01:39:13.497Z,8.03
2022-12-28T01:40:45.216Z,8.05
2022-12-28T01:42:17.507Z,8.11
2022-12-28T01:43:52.123Z,8.14
2022-12-28T01:45:23.777Z,8.13
2022-12-28T01:46:55.301Z,8.11
2022-12-28T01:48:26.801Z,8.07
2022-12-28T01:50:18.663Z,8.09
2022-12-28T01:51:50.171Z,8.08
2022-12-28T01:53:21.674Z,8.08
2022-12-28T01:54:54.612Z,8.08
2022-12-28T01:56:26.172Z,8.05
2022-12-28T01:57:57.819Z,8.01
2022-12-28T01:59:30.491Z,8.01
2022-12-28T02:01:02.202Z,7.99
2022-12-28T02:02:34.122Z,7.99
2022-12-28T02:04:05.933Z,7.97
2022-12-28T02:05:38.795Z,7.99
2022-12-28T02:07:10.469Z,8.01
2022-12-28T02:08:44.379Z,7.99
2022-12-28T02:10:42.675Z,7.97
2022-12-28T02:12:12.503Z,7.90
2022-12-28T02:13:44.610Z,7.87
2022-12-28T02:15:22.764Z,7.83
2022-12-28T02:16:54.894Z,7.80
2022-12-28T02:18:26.640Z,7.83
2022-12-28T02:19:58.409Z,7.81
2022-12-28T02:21:42.142Z,7.79
2022-12-28T02:23:32.138Z,7.78
2022-12-28T02:25:22.499Z,7.74
2022-12-28T02:26:54.049Z,7.73
2022-12-28T02:28:43.816Z,7.72
2022-12-28T02:30:15.527Z,7.71
2022-12-28T02:31:51.908Z,7.69
2022-12-28T02:33:55.915Z,7.62
2022-12-28T02:35:45.205Z,7.61
2022-12-28T02:37:21.009Z,7.61
2022-12-28T02:38:54.359Z,7.63
2022-12-28T02:40:27.136Z,7.66
2022-12-28T02:41:58.794Z,7.64
2022-12-28T02:43:30.495Z,7.63
2022-12-28T02:45:20.720Z,7.60
2022-12-28T02:47:11.063Z,7.59
2022-12-28T02:49:01.669Z,7.61
2022-12-28T02:50:53.612Z,7.54
2022-12-28T02:52:44.252Z,7.45
2022-12-28T02:54:40.717Z,7.38
2022-12-28T02:56:38.571Z,7.30
2022-12-28T02:58:19.242Z,7.26
2022-12-28T03:00:00.175Z,7.25
2022-12-28T03:01:34.847Z,7.18
2022-12-28T03:03:09.540Z,7.16
2022-12-28T03:04:59.834Z,7.11
2022-12-28T03:06:58.758Z,7.06
2022-12-28T03:08:46.109Z,7.02
2022-12-28T03:10:20.719Z,6.89
2022-12-28T03:11:59.992Z,6.85
2022-12-28T03:13:45.529Z,6.86
2022-12-28T03:15:29.803Z,6.87
2022-12-28T03:17:20.474Z,6.89
2022-12-28T03:19:12.297Z,6.89
2022-12-28T03:21:02.780Z,6.92
2022-12-28T03:22:53.220Z,6.97
2022-12-28T03:24:43.318Z,7.09
2022-12-28T03:26:33.526Z,7.21
2022-12-28T03:28:23.905Z,7.27
2022-12-28T03:30:16.737Z,7.31
2022-12-28T03:31:48.423Z,7.28
2022-12-28T03:33:20.034Z,7.27
2022-12-28T03:34:51.693Z,7.25
2022-12-28T03:36:26.091Z,7.28
2022-12-28T03:37:58.636Z,7.26
2022-12-28T03:39:35.909Z,7.26
2022-12-28T03:41:08.488Z,7.25
2022-12-28T03:42:59.485Z,7.21
2022-12-28T03:44:32.598Z,7.15
2022-12-28T03:46:11.755Z,7.10
2022-12-28T03:47:43.354Z,7.07
2022-12-28T03:49:15.485Z,7.06
2022-12-28T03:50:47.624Z,7.04
2022-12-28T03:52:19.267Z,7.05
2022-12-28T03:53:50.981Z,7.08
2022-12-28T03:55:22.712Z,7.12
2022-12-28T03:56:54.212Z,7.15
2022-12-28T03:58:25.823Z,7.17
2022-12-28T03:59:57.518Z,7.20
2022-12-28T04:01:29.173Z,7.22
2022-12-28T04:03:00.852Z,7.25
2022-12-28T04:04:32.606Z,7.27
2022-12-28T04:06:04.488Z,7.26
2022-12-28T04:07:36.024Z,7.27
2022-12-28T04:09:07.712Z,7.26
2022-12-28T04:10:39.307Z,7.24
2022-12-28T04:12:12.627Z,7.22
2022-12-28T04:13:44.622Z,7.22
2022-12-28T04:15:16.180Z,7.22
2022-12-28T04:16:47.676Z,7.19
2022-12-28T04:18:19.308Z,7.20
2022-12-28T04:19:50.988Z,7.17
2022-12-28T04:21:22.516Z,7.15
2022-12-28T04:22:54.144Z,7.12
2022-12-28T04:24:25.829Z,7.10
2022-12-28T04:26:07.477Z,7.10
2022-12-28T04:27:39.166Z,7.06
2022-12-28T04:29:10.829Z,7.06
2022-12-28T04:30:42.343Z,7.00
2022-12-28T04:32:14.031Z,6.96
2022-12-28T04:33:45.555Z,6.96
2022-12-28T04:35:17.089Z,6.89
2022-12-28T04:36:48.848Z,6.85
2022-12-28T04:38:20.677Z,6.78
2022-12-28T04:39:55.092Z,6.72
2022-12-28T04:41:28.676Z,6.68
2022-12-28T04:43:00.177Z,6.66
2022-12-28T04:44:32.626Z,6.65
2022-12-28T04:46:05.108Z,6.65
2022-12-28T04:47:36.740Z,6.64
2022-12-28T04:49:08.799Z,6.66
2022-12-28T04:50:40.409Z,6.66
2022-12-28T04:52:12.140Z,6.70
2022-12-28T04:53:43.730Z,6.76
2022-12-28T04:55:32.430Z,6.85
2022-12-28T04:57:05.114Z,6.94
2022-12-28T04:58:36.627Z,7.00
2022-12-28T05:00:08.535Z,7.00
2022-12-28T05:01:40.390Z,7.03
2022-12-28T05:03:12.113Z,7.09
2022-12-28T05:04:44.407Z,7.12
2022-12-28T05:06:16.916Z,7.11
2022-12-28T05:07:48.495Z,7.13
2022-12-28T05:09:20.048Z,7.15
2022-12-28T05:10:51.658Z,7.14
2022-12-28T05:12:23.268Z,7.13
2022-12-28T05:13:55.036Z,7.09
2022-12-28T05:15:26.598Z,7.02
2022-12-28T05:16:58.139Z,6.98
2022-12-28T05:18:29.778Z,6.95
2022-12-28T05:20:01.295Z,6.91
2022-12-28T05:21:32.947Z,6.91
2022-12-28T05:23:04.499Z,6.91
2022-12-28T05:24:36.031Z,6.97
2022-12-28T05:26:07.942Z,6.98
2022-12-28T05:27:39.445Z,7.00
2022-12-28T05:29:11.155Z,7.02
2022-12-28T05:30:42.818Z,7.08
2022-12-28T05:32:14.533Z,7.07
2022-12-28T05:33:47.757Z,7.05
2022-12-28T05:35:19.431Z,7.05
2022-12-28T05:36:51.084Z,7.05
2022-12-28T05:38:22.707Z,7.05
2022-12-28T05:39:54.405Z,7.05
2022-12-28T05:41:27.149Z,7.10
2022-12-28T05:42:59.798Z,7.09
2022-12-28T05:44:31.530Z,7.06
2022-12-28T05:46:03.613Z,7.02
2022-12-28T05:47:35.119Z,7.01
2022-12-28T05:49:08.069Z,7.03
2022-12-28T05:50:39.833Z,6.99
2022-12-28T05:52:11.573Z,6.96
2022-12-28T05:53:43.453Z,6.90
2022-12-28T05:55:15.113Z,6.88
2022-12-28T05:56:47.031Z,6.84
2022-12-28T05:58:19.213Z,6.83
2022-12-28T05:59:51.469Z,6.81
2022-12-28T06:01:23.712Z,6.82
2022-12-28T06:02:55.364Z,6.82
2022-12-28T06:04:27.237Z,6.81
2022-12-28T06:06:02.630Z,6.81
2022-12-28T06:07:34.216Z,6.81
2022-12-28T06:09:05.972Z,6.83
2022-12-28T06:10:37.576Z,6.85
2022-12-28T06:12:09.223Z,6.88
2022-12-28T06:13:41.087Z,6.91
2022-12-28T06:15:13.076Z,6.93
2022-12-28T06:16:46.428Z,6.96
2022-12-28T06:18:18.461Z,6.97
2022-12-28T06:19:50.223Z,7.01
2022-12-28T06:21:21.870Z,7.02
2022-12-28T06:22:53.572Z,7.04
2022-12-28T06:24:25.333Z,7.08
2022-12-28T06:25:58.273Z,7.12
2022-12-28T06:27:29.991Z,7.18
2022-12-28T06:29:04.450Z,7.21
2022-12-28T06:30:36.911Z,7.25
2022-12-28T06:32:15.296Z,7.31
2022-12-28T06:33:47.585Z,7.37
2022-12-28T06:35:19.951Z,7.40
2022-12-28T06:36:53.101Z,7.37
2022-12-28T06:38:30.392Z,7.29
2022-12-28T06:40:03.397Z,7.14
2022-12-28T06:41:35.846Z,7.06
2022-12-28T06:43:08.050Z,6.98
2022-12-28T06:44:44.821Z,6.97
2022-12-28T06:46:19.600Z,6.97
2022-12-28T06:47:51.492Z,6.90
2022-12-28T06:49:24.309Z,6.88
2022-12-28T06:51:17.151Z,6.88
2022-12-28T06:52:48.926Z,6.84
2022-12-28T06:54:20.760Z,6.81
2022-12-28T06:55:53.916Z,6.78
2022-12-28T06:57:25.964Z,6.80
2022-12-28T06:59:02.792Z,6.85
2022-12-28T07:00:35.931Z,6.87
2022-12-28T07:02:11.325Z,6.91
2022-12-28T07:03:45.300Z,6.95
2022-12-28T07:05:17.775Z,7.01
2022-12-28T07:06:53.622Z,7.03
2022-12-28T07:08:25.725Z,7.09
2022-12-28T07:09:57.783Z,7.14
2022-12-28T07:11:30.149Z,7.15
2022-12-28T07:13:02.544Z,7.15
2022-12-28T07:14:34.291Z,7.16
2022-12-28T07:16:14.048Z,7.19
2022-12-28T07:17:59.003Z,7.25
2022-12-28T07:19:31.098Z,7.29
2022-12-28T07:21:04.212Z,7.33
2022-12-28T07:22:36.278Z,7.38
2022-12-28T07:24:08.617Z,7.43
2022-12-28T07:25:41.013Z,7.51
2022-12-28T07:27:19.131Z,7.58
2022-12-28T07:28:52.642Z,7.64
2022-12-28T07:30:24.357Z,7.67
2022-12-28T07:31:56.426Z,7.71
2022-12-28T07:33:28.326Z,7.74
2022-12-28T07:35:00.078Z,7.76
2022-12-28T07:36:34.557Z,7.78
2022-12-28T07:38:06.347Z,7.80
2022-12-28T07:39:38.255Z,7.88
2022-12-28T07:41:42.474Z,7.94
2022-12-28T07:43:12.706Z,7.90
2022-12-28T07:44:49.174Z,7.94
2022-12-28T07:46:25.592Z,7.91
2022-12-28T07:47:57.966Z,7.93
2022-12-28T07:49:29.751Z,7.91
2022-12-28T07:51:13.481Z,7.92
2022-12-28T07:52:45.712Z,7.90
2022-12-28T07:54:17.676Z,7.91
2022-12-28T07:55:56.549Z,7.95
2022-12-28T07:57:28.289Z,8.00
2022-12-28T07:59:00.682Z,7.97
2022-12-28T08:00:32.505Z,8.00
2022-12-28T08:02:04.598Z,8.06
2022-12-28T08:03:36.645Z,8.11
2022-12-28T08:05:08.763Z,8.17
2022-12-28T08:06:42.002Z,8.21
2022-12-28T08:08:17.433Z,8.23
2022-12-28T08:10:02.513Z,8.19
2022-12-28T08:11:35.099Z,8.18
2022-12-28T08:13:06.999Z,8.17
2022-12-28T08:14:38.911Z,8.20
2022-12-28T08:16:12.007Z,8.27
2022-12-28T08:17:44.427Z,8.27
2022-12-28T08:19:16.288Z,8.31
2022-12-28T08:20:48.817Z,8.34
2022-12-28T08:22:20.672Z,8.40
2022-12-28T08:23:52.494Z,8.45
2022-12-28T08:25:26.215Z,8.52
2022-12-28T08:26:58.309Z,8.60
2022-12-28T08:28:30.079Z,8.66
2022-12-28T08:30:01.778Z,8.74
2022-12-28T08:31:35.348Z,8.82
2022-12-28T08:33:16.263Z,8.87
2022-12-28T08:34:48.284Z,8.86
2022-12-28T08:36:20.167Z,8.92
2022-12-28T08:37:54.958Z,8.93
2022-12-28T08:39:27.439Z,8.95
2022-12-28T08:40:59.920Z,8.98
2022-12-28T08:42:31.854Z,9.01
2022-12-28T08:44:03.740Z,9.04
2022-12-28T08:45:36.180Z,9.12
2022-12-28T08:47:07.895Z,9.14
2022-12-28T08:48:39.660Z,9.24
2022-12-28T08:50:12.343Z,9.31
2022-12-28T08:51:44.553Z,9.38
2022-12-28T08:53:16.429Z,9.42
2022-12-28T08:54:48.183Z,9.48
2022-12-28T08:56:23.489Z,9.56
2022-12-28T08:57:55.310Z,9.52
2022-12-28T08:59:27.496Z,9.32
2022-12-28T09:01:20.063Z,9.19
2022-12-28T09:02:52.470Z,9.02
2022-12-28T09:04:24.419Z,8.94
2022-12-28T09:05:56.556Z,8.89
2022-12-28T09:07:28.602Z,8.78
2022-12-28T09:09:06.290Z,8.74
2022-12-28T09:10:39.152Z,8.71
2022-12-28T09:12:10.959Z,8.71
2022-12-28T09:14:36.512Z,8.65
2022-12-28T09:16:14.851Z,8.63
2022-12-28T09:17:47.219Z,8.64
2022-12-28T09:19:19.392Z,8.65
2022-12-28T09:20:51.109Z,8.70
2022-12-28T09:22:23.891Z,8.71
2022-12-28T09:23:55.820Z,8.76
2022-12-28T09:25:27.485Z,8.85
2022-12-28T09:26:59.162Z,8.94
2022-12-28T09:28:31.112Z,8.99
2022-12-28T09:30:04.118Z,9.12
2022-12-28T09:31:40.534Z,9.24
2022-12-28T09:33:31.311Z,9.30
2022-12-28T09:35:03.336Z,9.36
2022-12-28T09:36:39.154Z,9.39
2022-12-28T09:38:10.947Z,9.43
2022-12-28T09:39:42.630Z,9.44
2022-12-28T09:41:26.267Z,9.41
2022-12-28T09:43:01.431Z,9.41
2022-12-28T09:45:05.136Z,9.38
2022-12-28T09:46:37.246Z,9.29
2022-12-28T09:48:11.003Z,9.32
2022-12-28T09:49:44.797Z,9.35
2022-12-28T09:51:16.665Z,9.35
2022-12-28T09:52:54.093Z,9.31
2022-12-28T09:54:26.054Z,9.24
2022-12-28T09:55:59.091Z,9.10
2022-12-28T09:57:33.737Z,9.05
2022-12-28T09:59:06.082Z,8.99
2022-12-28T10:00:39.017Z,8.98
2022-12-28T10:02:27.414Z,8.99
2022-12-28T10:03:59.766Z,9.01
2022-12-28T10:05:31.561Z,9.02
2022-12-28T10:07:03.419Z,9.03
2022-12-28T10:08:35.126Z,9.01
2022-12-28T10:10:07.114Z,9.04
2022-12-28T10:11:42.127Z,9.08
2022-12-28T10:13:45.442Z,9.13
2022-12-28T10:15:10.108Z,9.17
2022-12-28T10:16:46.947Z,9.21
2022-12-28T10:18:22.618Z,9.23
2022-12-28T10:19:55.062Z,9.21
2022-12-28T10:21:32.463Z,9.22
2022-12-28T10:23:04.474Z,9.28
2022-12-28T10:24:36.169Z,9.32
2022-12-28T10:26:07.758Z,9.40
2022-12-28T10:27:39.466Z,9.46
2022-12-28T10:29:14.132Z,9.53
2022-12-28T10:30:48.519Z,9.57
2022-12-28T10:32:20.456Z,9.61
2022-12-28T10:33:52.644Z,9.64
2022-12-28T10:35:25.539Z,9.71
2022-12-28T10:36:59.629Z,9.68
2022-12-28T10:38:32.451Z,9.65
2022-12-28T10:40:06.961Z,9.64
2022-12-28T10:41:39.239Z,9.64
2022-12-28T10:43:18.421Z,9.66
2022-12-28T10:44:50.236Z,9.67
2022-12-28T10:46:24.712Z,9.76
2022-12-28T10:47:57.269Z,9.83
2022-12-28T10:49:32.253Z,9.93
2022-12-28T10:51:13.805Z,10.02
2022-12-28T10:52:55.358Z,10.13
2022-12-28T10:54:27.582Z,10.14
2022-12-28T10:56:15.016Z,10.22
2022-12-28T10:58:19.052Z,10.33
2022-12-28T10:59:41.256Z,10.40
2022-12-28T11:01:13.130Z,10.35
2022-12-28T11:02:45.112Z,10.34
2022-12-28T11:04:20.678Z,10.39
2022-12-28T11:06:07.999Z,10.44
2022-12-28T11:07:41.333Z,10.49
2022-12-28T11:09:13.091Z,10.55
2022-12-28T11:10:45.064Z,10.51
2022-12-28T11:12:17.447Z,10.49
2022-12-28T11:13:51.287Z,10.41
2022-12-28T11:15:24.126Z,10.41
2022-12-28T11:16:55.948Z,10.47
2022-12-28T11:18:30.808Z,10.46
2022-12-28T11:20:14.920Z,10.52
2022-12-28T11:21:49.724Z,10.61
2022-12-28T11:23:22.088Z,10.68
2022-12-28T11:24:53.998Z,10.74
2022-12-28T11:26:26.457Z,10.81
2022-12-28T11:27:58.188Z,10.86
2022-12-28T11:29:29.866Z,10.87
2022-12-28T11:31:01.622Z,10.90
2022-12-28T11:32:39.973Z,10.89
2022-12-28T11:34:19.799Z,10.86
2022-12-28T11:35:58.937Z,10.84
2022-12-28T11:37:31.549Z,10.84
2022-12-28T11:39:23.183Z,10.88
2022-12-28T11:41:04.080Z,10.95
2022-12-28T11:42:53.128Z,10.98
2022-12-28T11:44:30.759Z,11.01
2022-12-28T11:46:06.041Z,11.02
2022-12-28T11:47:37.947Z,11.05
2022-12-28T11:49:26.171Z,11.08
2022-12-28T11:51:04.808Z,11.09
2022-12-28T11:52:44.736Z,11.12
2022-12-28T11:54:34.768Z,11.15
2022-12-28T11:56:09.671Z,11.15
2022-12-28T11:57:42.756Z,11.10
2022-12-28T11:59:27.412Z,11.05
2022-12-28T12:01:05.417Z,11.02
2022-12-28T12:02:43.007Z,11.01
2022-12-28T12:04:18.531Z,11.01
2022-12-28T12:05:51.218Z,11.02
2022-12-28T12:07:30.685Z,11.03
2022-12-28T12:09:03.679Z,11.03
2022-12-28T12:10:35.790Z,11.03
2022-12-28T12:12:18.572Z,10.99
2022-12-28T12:13:50.756Z,10.98
2022-12-28T12:15:24.969Z,10.96
2022-12-28T12:17:06.469Z,10.90
2022-12-28T12:18:49.248Z,10.79
2022-12-28T12:20:26.313Z,10.73
2022-12-28T12:22:01.507Z,10.66
2022-12-28T12:23:41.072Z,10.62
2022-12-28T12:25:12.757Z,10.62
2022-12-28T12:26:45.633Z,10.56
2022-12-28T12:28:38.431Z,10.56
2022-12-28T12:30:15.680Z,10.49
2022-12-28T12:31:49.280Z,10.47
2022-12-28T12:33:25.817Z,10.46
2022-12-28T12:35:08.723Z,10.45
2022-12-28T12:36:52.500Z,10.44
2022-12-28T12:38:41.158Z,10.39
2022-12-28T12:40:35.603Z,10.41
2022-12-28T12:42:24.557Z,10.39
2022-12-28T12:44:07.184Z,10.39
2022-12-28T12:45:41.933Z,10.44
2022-12-28T12:47:13.880Z,10.46
2022-12-28T12:49:04.358Z,10.51
2022-12-28T12:50:46.839Z,10.53
2022-12-28T12:52:35.259Z,10.59
2022-12-28T12:54:31.529Z,10.62
2022-12-28T12:56:08.531Z,10.59
2022-12-28T12:57:46.211Z,10.54
2022-12-28T12:59:20.740Z,10.52
2022-12-28T13:01:01.763Z,10.50
2022-12-28T13:02:39.353Z,10.49
2022-12-28T13:04:18.683Z,10.48
2022-12-28T13:05:53.977Z,10.47
2022-12-28T13:07:26.269Z,10.44
2022-12-28T13:09:04.806Z,10.46
2022-12-28T13:10:38.163Z,10.48
2022-12-28T13:12:14.465Z,10.47
2022-12-28T13:13:47.017Z,10.48
2022-12-28T13:15:18.749Z,10.47
2022-12-28T13:16:51.368Z,10.48
2022-12-28T13:20:21.443Z,10.51
2022-12-28T13:21:53.260Z,10.56
2022-12-28T13:23:25.081Z,10.57
2022-12-28T13:24:56.938Z,10.54
2022-12-28T13:26:29.403Z,10.52
2022-12-28T13:28:04.108Z,10.44
2022-12-28T13:29:40.677Z,10.41
2022-12-28T13:31:21.072Z,10.36
2022-12-28T13:32:54.065Z,10.35
2022-12-28T13:34:27.646Z,10.35
2022-12-28T13:36:25.674Z,10.35
2022-12-28T13:38:09.288Z,10.35
2022-12-28T13:39:42.283Z,10.35
2022-12-28T13:41:19.106Z,10.38
2022-12-28T13:43:04.844Z,10.38
2022-12-28T13:44:39.716Z,10.37
2022-12-28T13:46:11.879Z,10.33
2022-12-28T13:47:44.851Z,10.34
2022-12-28T13:49:16.849Z,10.33
2022-12-28T13:50:56.176Z,10.35
2022-12-28T13:52:30.830Z,10.34
2022-12-28T13:54:02.779Z,10.32
2022-12-28T13:55:44.937Z,10.33
2022-12-28T13:59:17.633Z,10.36
2022-12-28T14:00:50.117Z,10.37
2022-12-28T14:02:22.114Z,10.36
2022-12-28T14:04:08.877Z,10.35
2022-12-28T14:05:48.287Z,10.32
2022-12-28T14:07:20.334Z,10.32
2022-12-28T14:08:52.110Z,10.31
2022-12-28T14:10:25.238Z,10.30
2022-12-28T14:12:05.615Z,10.28
2022-12-28T14:13:38.363Z,10.26
2022-12-28T14:15:10.943Z,10.29
2022-12-28T14:16:42.547Z,10.29
2022-12-28T14:18:15.036Z,10.29
2022-12-28T14:19:46.754Z,10.29
2022-12-28T14:21:32.079Z,10.30
2022-12-28T14:23:22.964Z,10.30
2022-12-28T14:25:01.463Z,10.29
2022-12-28T14:26:33.165Z,10.25
2022-12-28T14:28:08.304Z,10.24
2022-12-28T14:29:42.726Z,10.22
2022-12-28T14:31:21.130Z,10.16
2022-12-28T14:32:55.231Z,10.12
2022-12-28T14:34:28.993Z,10.11
2022-12-28T14:36:01.997Z,10.11
2022-12-28T14:37:36.064Z,10.13
2022-12-28T14:39:15.989Z,10.14
2022-12-28T14:40:55.547Z,10.14
2022-12-28T14:42:27.255Z,10.12
2022-12-28T14:44:00.323Z,10.10
2022-12-28T14:46:07.225Z,10.06
2022-12-28T14:47:35.427Z,10.01
2022-12-28T14:49:25.812Z,9.99
2022-12-28T14:50:57.754Z,9.98
2022-12-28T14:52:29.781Z,9.96
2022-12-28T14:54:17.454Z,9.92
2022-12-28T14:55:58.437Z,9.87
2022-12-28T14:57:40.365Z,9.82
2022-12-28T14:59:22.555Z,9.78
2022-12-28T15:00:58.190Z,9.74
2022-12-28T15:02:41.409Z,9.66
2022-12-28T15:04:30.645Z,9.55
2022-12-28T15:06:03.264Z,9.51
2022-12-28T15:07:35.137Z,9.51
2022-12-28T15:09:11.706Z,9.51
2022-12-28T15:10:53.798Z,9.46
2022-12-28T15:12:25.572Z,9.38
2022-12-28T15:13:57.612Z,9.28
2022-12-28T15:15:29.329Z,9.21
2022-12-28T15:17:01.060Z,9.19
2022-12-28T15:18:35.455Z,9.13
2022-12-28T15:20:07.812Z,9.13
2022-12-28T15:21:39.876Z,9.13
2022-12-28T15:23:11.660Z,9.11
2022-12-28T15:24:45.687Z,9.07
2022-12-28T15:26:20.794Z,9.01
2022-12-28T15:27:52.941Z,8.96
2022-12-28T15:29:39.982Z,8.91
2022-12-28T15:31:18.193Z,8.88
2022-12-28T15:32:50.283Z,8.85
2022-12-28T15:34:22.013Z,8.85
2022-12-28T15:36:01.999Z,8.86
2022-12-28T15:37:33.957Z,8.82
2022-12-28T15:39:05.682Z,8.79
2022-12-28T15:40:39.565Z,8.78
2022-12-28T15:42:11.259Z,8.75
2022-12-28T15:43:43.116Z,8.68
2022-12-28T15:45:18.026Z,8.65
2022-12-28T15:46:53.137Z,8.61
2022-12-28T15:48:25.233Z,8.65
2022-12-28T15:49:59.403Z,8.67
2022-12-28T15:51:31.307Z,8.72
2022-12-28T15:53:03.076Z,8.74
2022-12-28T15:54:35.607Z,8.77
2022-12-28T15:56:07.381Z,8.77
2022-12-28T15:57:39.016Z,8.74
2022-12-28T15:59:14.618Z,8.71
2022-12-28T16:00:48.755Z,8.75
2022-12-28T16:02:21.170Z,8.73
2022-12-28T16:03:54.244Z,8.70
2022-12-28T16:05:25.935Z,8.70
2022-12-28T16:06:57.751Z,8.72
2022-12-28T16:08:30.332Z,8.70
2022-12-28T16:10:02.019Z,8.66
2022-12-28T16:11:34.449Z,8.59
2022-12-28T16:13:06.175Z,8.54
2022-12-28T16:14:37.765Z,8.57
2022-12-28T16:16:10.435Z,8.62
2022-12-28T16:17:55.113Z,8.62
2022-12-28T16:19:29.221Z,8.59
2022-12-28T16:21:02.141Z,8.56
2022-12-28T16:22:38.194Z,8.57
2022-12-28T16:24:09.948Z,8.54
2022-12-28T16:25:49.175Z,8.54
2022-12-28T16:27:21.119Z,8.52
2022-12-28T16:28:53.022Z,8.52
2022-12-28T16:30:24.755Z,8.54
2022-12-28T16:31:58.499Z,8.57
2022-12-28T16:33:30.128Z,8.60
2022-12-28T16:35:02.313Z,8.59
2022-12-28T16:36:34.517Z,8.49
2022-12-28T16:38:13.433Z,8.43
2022-12-28T16:39:45.306Z,8.41
2022-12-28T16:41:18.164Z,8.43
2022-12-28T16:42:49.951Z,8.38
2022-12-28T16:44:22.472Z,8.34
2022-12-28T16:45:54.265Z,8.26
2022-12-28T16:47:26.048Z,8.21
2022-12-28T16:49:02.001Z,8.27
2022-12-28T16:50:33.759Z,8.33
2022-12-28T16:52:05.914Z,8.37
2022-12-28T16:53:37.489Z,8.41
2022-12-28T16:55:09.280Z,8.44
2022-12-28T16:56:41.131Z,8.43
2022-12-28T16:58:12.852Z,8.38
2022-12-28T16:59:44.557Z,8.34
2022-12-28T17:01:16.370Z,8.31
2022-12-28T17:02:48.820Z,8.26
2022-12-28T17:04:20.900Z,8.24
2022-12-28T17:05:58.651Z,8.24
2022-12-28T17:07:32.812Z,8.24
2022-12-28T17:09:04.732Z,8.31
2022-12-28T17:10:39.146Z,8.34
2022-12-28T17:12:10.808Z,8.37
2022-12-28T17:13:49.623Z,8.38
2022-12-28T17:15:21.342Z,8.41
2022-12-28T17:16:53.109Z,8.45
2022-12-28T17:18:24.842Z,8.50
2022-12-28T17:20:00.100Z,8.51
2022-12-28T17:21:32.134Z,8.53
2022-12-28T17:23:04.217Z,8.52
2022-12-28T17:24:36.410Z,8.51
2022-12-28T17:26:08.145Z,8.54
2022-12-28T17:27:39.870Z,8.54
2022-12-28T17:29:11.874Z,8.52
2022-12-28T17:30:43.644Z,8.49
2022-12-28T17:32:15.797Z,8.49
2022-12-28T17:33:47.971Z,8.43
2022-12-28T17:35:19.784Z,8.38
2022-12-28T17:36:52.975Z,8.34
2022-12-28T17:38:24.726Z,8.30
2022-12-28T17:39:56.507Z,8.33
2022-12-28T17:41:28.199Z,8.33
2022-12-28T17:42:59.882Z,8.31
2022-12-28T17:44:31.731Z,8.27
2022-12-28T17:46:03.430Z,8.31
2022-12-28T17:47:38.126Z,8.34
2022-12-28T17:49:13.465Z,8.31
2022-12-28T17:50:47.261Z,8.27
2022-12-28T17:52:21.978Z,8.27
2022-12-28T17:53:54.091Z,8.24
2022-12-28T17:55:25.849Z,8.19
2022-12-28T17:56:57.661Z,8.16
2022-12-28T17:58:29.611Z,8.13
2022-12-28T18:00:01.423Z,8.07
2022-12-28T18:01:33.695Z,8.03
2022-12-28T18:03:06.756Z,8.01
2022-12-28T18:04:38.994Z,8.01
2022-12-28T18:06:10.645Z,7.96
2022-12-28T18:07:42.267Z,7.91
2022-12-28T18:09:13.863Z,7.85
2022-12-28T18:10:48.219Z,7.85
2022-12-28T18:12:19.920Z,7.86
2022-12-28T18:13:51.824Z,7.84
2022-12-28T18:15:27.267Z,7.83
2022-12-28T18:17:01.524Z,7.86
2022-12-28T18:18:33.084Z,7.87
2022-12-28T18:20:04.968Z,7.86
2022-12-28T18:21:36.517Z,7.83
2022-12-28T18:23:08.351Z,7.82
2022-12-28T18:24:40.123Z,7.80
2022-12-28T18:26:15.564Z,7.78
2022-12-28T18:27:47.842Z,7.72
2022-12-28T18:29:19.474Z,7.67
2022-12-28T18:30:52.566Z,7.66
2022-12-28T18:32:26.020Z,7.69
2022-12-28T18:33:58.783Z,7.74
2022-12-28T18:35:30.547Z,7.81
2022-12-28T18:37:02.323Z,7.86
2022-12-28T18:38:34.701Z,7.89
2022-12-28T18:40:06.763Z,7.85
2022-12-28T18:41:38.854Z,7.78
2022-12-28T18:43:11.225Z,7.75
2022-12-28T18:44:43.116Z,7.75
2022-12-28T18:46:15.064Z,7.77
2022-12-28T18:47:46.804Z,7.78
2022-12-28T18:49:18.521Z,7.77
2022-12-28T18:50:54.215Z,7.76
2022-12-28T18:52:25.941Z,7.73
2022-12-28T18:53:57.643Z,7.70
2022-12-28T18:55:29.456Z,7.68
2022-12-28T18:57:01.944Z,7.69
2022-12-28T18:58:36.974Z,7.71
2022-12-28T19:00:09.254Z,7.71
2022-12-28T19:02:06.412Z,7.68
2022-12-28T19:03:33.067Z,7.67
2022-12-28T19:05:05.798Z,7.69
2022-12-28T19:06:37.568Z,7.73
2022-12-28T19:08:09.103Z,7.78
2022-12-28T19:10:03.751Z,7.82
2022-12-28T19:11:38.360Z,7.79
2022-12-28T19:13:10.092Z,7.76
2022-12-28T19:14:41.872Z,7.76
2022-12-28T19:16:15.172Z,7.77
2022-12-28T19:17:46.815Z,7.81
2022-12-28T19:19:19.170Z,7.81
2022-12-28T19:20:55.235Z,7.78
2022-12-28T19:22:26.978Z,7.81
2022-12-28T19:24:00.435Z,7.85
2022-12-28T19:25:32.165Z,7.91
2022-12-28T19:27:05.106Z,7.90
2022-12-28T19:28:41.025Z,7.92
2022-12-28T19:30:13.015Z,7.89
2022-12-28T19:31:45.019Z,7.90
2022-12-28T19:33:17.038Z,7.91
2022-12-28T19:34:48.881Z,7.92
2022-12-28T19:36:20.393Z,7.92
2022-12-28T19:37:52.214Z,7.99
2022-12-28T19:39:23.927Z,7.98
2022-12-28T19:40:55.884Z,7.99
2022-12-28T19:42:27.531Z,7.96
2022-12-28T19:43:59.715Z,7.98
2022-12-28T19:45:31.316Z,7.94
2022-12-28T19:47:02.961Z,7.96
2022-12-28T19:48:34.648Z,8.01
2022-12-28T19:50:06.389Z,7.96
2022-12-28T19:51:38.085Z,7.98
2022-12-28T19:53:09.859Z,7.96
2022-12-28T19:54:42.469Z,7.97
2022-12-28T19:56:15.100Z,7.94
2022-12-28T19:57:46.788Z,7.91
2022-12-28T19:59:18.482Z,7.86
2022-12-28T20:00:50.115Z,7.80
2022-12-28T20:02:21.778Z,7.76
2022-12-28T20:03:54.422Z,7.79
2022-12-28T20:05:26.519Z,7.78
2022-12-28T20:06:58.393Z,7.82
2022-12-28T20:08:30.111Z,7.85
2022-12-28T20:10:01.808Z,7.86
2022-12-28T20:11:33.576Z,7.86
2022-12-28T20:13:05.234Z,7.84
2022-12-28T20:14:37.009Z,7.76
2022-12-28T20:16:09.146Z,7.75
2022-12-28T20:17:42.249Z,7.74
2022-12-28T20:19:13.967Z,7.73
2022-12-28T20:21:17.160Z,7.74
2022-12-28T20:22:39.747Z,7.75
2022-12-28T20:24:11.950Z,7.75
2022-12-28T20:25:53.037Z,7.76
2022-12-28T20:27:28.868Z,7.80
2022-12-28T20:29:00.809Z,7.83
2022-12-28T20:30:32.504Z,7.77
2022-12-28T20:32:04.371Z,7.72
2022-12-28T20:33:36.176Z,7.68
2022-12-28T20:35:07.889Z,7.58
2022-12-28T20:36:39.565Z,7.55
2022-12-28T20:38:13.499Z,7.49
2022-12-28T20:39:45.065Z,7.44
2022-12-28T20:41:48.673Z,7.43
2022-12-28T20:43:23.546Z,7.42
2022-12-28T20:44:56.821Z,7.40
2022-12-28T20:46:28.527Z,7.39
2022-12-28T20:48:00.332Z,7.40
2022-12-28T20:49:32.208Z,7.42
2022-12-28T20:51:03.774Z,7.46
2022-12-28T20:52:35.337Z,7.48
2022-12-28T20:54:06.959Z,7.52
2022-12-28T20:55:38.601Z,7.54
2022-12-28T20:57:10.198Z,7.55
2022-12-28T20:58:41.791Z,7.56